Latest Weather Observations for Latrobe Valley

IDV60801

Issued at 12:02 am EST Wednesday 27 May 2015 (issued every 30 minutes, with the page automatically refreshed every 10 minutes)

About weather observations | Map of weather stations | Latest weather observations for VIC | Other Formats
Station Details ID: 085280 Name: LATROBE VALLEY AIRPORT Lat: -38.21 Lon: 146.47 Height: 55.7 m
Data from the previous 72 hours. | See also: Recent months at Latrobe Valley
Date/Time
EST
Temp
°C
App
Temp
°C
Dew
Point
Rel
Hum
%
Delta-T
°C
Wind Press
QNH
hPa
Press
MSL
hPa
Rain
since 9 am
mm
Dir
 
Spd
km/h
Gust
km/h
Spd
kts
Gust
kts
27/12:00am 7.7 7.2 7.7 100 0.0 CALM 0 0 0 0 1024.4 1024.5 0.0
 
Date/Time
EST
Temp
°C
App
Temp
°C
Dew
Point
Rel
Hum
%
Delta-T
°C
Wind Press
QNH
hPa
Press
MSL
hPa
Rain
since 9 am
mm
Dir
 
Spd
km/h
Gust
km/h
Spd
kts
Gust
kts
26/11:30pm 7.7 7.1 7.6 99 0.0 CALM 0 0 0 0 1024.4 1024.5 0.0
26/11:00pm 8.1 6.5 8.0 99 0.0 NE 6 9 3 5 1024.5 1024.6 0.0
26/10:30pm 9.5 8.2 7.6 88 0.9 ESE 4 7 2 4 1024.6 1024.7 0.0
26/10:00pm 10.1 8.0 8.2 88 0.9 ESE 9 13 5 7 1024.7 1024.8 0.0
26/09:30pm 9.3 7.5 8.1 92 0.6 E 7 9 4 5 1025.1 1025.2 0.0
26/09:00pm 9.4 7.7 8.2 92 0.6 E 7 9 4 5 1025.2 1025.3 0.0
26/08:30pm 10.1 8.6 8.4 89 0.8 ENE 6 9 3 5 1025.1 1025.2 0.0
26/08:00pm 10.7 8.3 8.8 88 0.9 E 11 17 6 9 1024.9 1025.0 0.0
26/07:30pm 10.9 9.0 9.0 88 0.9 ESE 9 13 5 7 1025.6 1025.7 0.0
26/07:00pm 10.9 9.0 9.2 89 0.8 E 9 13 5 7 1025.7 1025.8 0.0
26/06:30pm 10.8 9.2 8.9 88 0.9 ESE 7 9 4 5 1026.0 1026.1 0.0
26/06:00pm 11.2 10.0 9.5 89 0.9 E 6 7 3 4 1025.7 1025.8 0.0
26/05:30pm 11.6 10.2 9.5 87 1.1 ENE 7 9 4 5 1025.7 1025.8 0.0
26/05:00pm 11.8 10.4 9.5 86 1.2 NE 7 9 4 5 1025.7 1025.8 0.0
26/04:30pm 12.7 11.3 9.7 82 1.5 NE 7 9 4 5 1025.7 1025.8 0.0
26/04:00pm 13.4 11.7 9.8 79 1.8 NNE 9 11 5 6 1026.0 1026.1 0.0
26/03:30pm 14.8 13.8 9.0 68 3.0 E 4 6 2 3 1025.9 1026.0 0.0
26/03:00pm 15.4 14.8 8.9 65 3.3 E 2 7 1 4 1026.0 1026.1 0.0
26/02:30pm 15.6 14.6 8.8 64 3.5 E 4 9 2 5 1026.0 1026.1 0.0
26/02:00pm 14.6 13.2 8.8 68 2.9 S 6 7 3 4 1026.5 1026.6 0.0
26/01:30pm 15.3 14.9 9.9 70 2.8 SE 2 9 1 5 1026.7 1026.8 0.0
26/01:00pm 15.3 14.7 10.3 72 2.6 SE 4 7 2 4 1027.3 1027.4 0.0
26/12:30pm 14.1 12.9 9.5 74 2.4 WNW 6 9 3 5 1027.8 1027.9 0.0
26/12:00pm 12.5 12.4 9.3 81 1.6 CALM 0 0 0 0 1028.2 1028.3 0.0
26/11:30am 10.9 10.6 8.7 86 1.1 CALM 0 6 0 3 1028.8 1028.9 0.0
26/11:00am 10.7 10.3 9.9 95 0.4 S 2 6 1 3 1029.7 1029.8 0.0
26/10:30am 7.5 6.2 7.5 100 0.0 SW 4 7 2 4 1029.8 1029.9 0.0
26/10:00am 6.3 5.5 6.3 100 0.0 CALM 0 0 0 0 1029.9 1030.0 0.0
26/09:34am 5.0 3.9 5.0 100 0.0 CALM 0 0 0 0 1029.9 1030.0 0.0
26/09:31am 5.0 3.9 5.0 100 0.0 CALM 0 0 0 0 1030.0 1030.1 0.0
26/09:30am 5.1 4.0 5.1 100 0.0 CALM 0 0 0 0 1030.0 1030.1 0.0
26/09:00am 3.5 1.0 3.5 100 0.0 SW 6 6 3 3 1030.1 1030.2 0.2
26/08:30am 2.3 -0.5 2.3 100 0.0 WSW 6 7 3 4 1030.1 1030.2 0.2
26/08:05am 1.5 -1.6 1.5 100 0.0 S 7 9 4 5 1030.1 1030.2 0.0
26/08:00am 1.3 -1.8 1.3 100 0.0 S 7 9 4 5 1030.0 1030.1 0.0
26/07:50am 1.3 -1.8 1.3 100 0.0 S 7 9 4 5 1030.1 1030.2 0.0
26/07:30am 1.0 -0.8 1.0 100 0.0 CALM 0 0 0 0 1030.1 1030.2 0.0
26/07:00am -0.2 -3.4 -0.2 100 0.0 NW 6 7 3 4 1029.7 1029.8 0.0
26/06:30am 0.3 -2.0 0.3 100 0.0 SSW 2 6 1 3 1029.7 1029.8 0.0
26/06:00am 1.0 -0.8 1.0 100 0.0 CALM 0 0 0 0 1029.6 1029.7 0.0
26/05:30am 1.3 -0.5 1.3 100 0.0 CALM 0 0 0 0 1029.6 1029.7 0.0
26/05:00am 1.4 -0.4 1.4 100 0.0 CALM 0 0 0 0 1029.5 1029.6 0.0
26/04:30am 1.1 -1.9 1.1 100 0.0 W 6 6 3 3 1029.5 1029.6 0.0
26/04:00am 1.2 -0.6 1.2 100 0.0 CALM 0 0 0 0 1029.5 1029.6 0.0
26/03:30am 1.5 -0.3 1.5 100 0.0 CALM 0 0 0 0 1029.4 1029.5 0.0
26/03:00am 1.9 -1.5 1.9 100 0.0 SW 9 9 5 5 1029.8 1029.9 0.0
26/02:30am 2.7 -0.2 2.7 100 0.0 SSW 7 7 4 4 1030.0 1030.1 0.0
26/02:00am 2.1 -0.9 2.1 100 0.0 SW 7 9 4 5 1029.8 1029.9 0.0
26/01:30am 2.5 0.5 2.5 100 0.0 SSW 2 6 1 3 1029.9 1030.0 0.0
26/01:00am 3.0 0.7 3.0 100 0.0 WSW 4 6 2 3 1029.9 1030.0 0.0
26/12:30am 1.6 -1.3 1.6 100 0.0 WSW 6 7 3 4 1030.0 1030.1 0.0
26/12:25am 1.6 -1.3 1.6 100 0.0 SW 6 7 3 4 1030.0 1030.1 0.0
26/12:21am 1.9 -0.9 1.9 100 0.0 SW 6 7 3 4 1030.1 1030.2 0.0
26/12:00am 3.0 0.4 3.0 100 0.0 S 6 9 3 5 1030.1 1030.2 0.0
 
Date/Time
EST
Temp
°C
App
Temp
°C
Dew
Point
Rel
Hum
%
Delta-T
°C
Wind Press
QNH
hPa
Press
MSL
hPa
Rain
since 9 am
mm
Dir
 
Spd
km/h
Gust
km/h
Spd
kts
Gust
kts
25/11:30pm 3.2 1.7 3.2 100 0.0 CALM 0 0 0 0 1030.3 1030.4 0.0
25/11:14pm 3.0 1.5 3.0 100 0.0 CALM 0 0 0 0 1030.4 1030.5 0.0
25/11:00pm 3.1 1.6 3.1 100 0.0 CALM 0 0 0 0 1030.4 1030.5 0.0
25/10:54pm 3.2 1.7 3.2 100 0.0 CALM 0 0 0 0 1030.4 1030.5 0.0
25/10:40pm 3.8 2.4 3.8 100 0.0 CALM 0 0 0 0 1030.5 1030.6 0.0
25/10:30pm 3.7 2.3 3.7 100 0.0 CALM 0 0 0 0 1030.6 1030.7 0.0
25/10:00pm 3.2 1.7 3.2 100 0.0 CALM 0 0 0 0 1030.7 1030.8 0.0
25/09:51pm 3.4 2.0 3.4 100 0.0 CALM 0 0 0 0 1030.6 1030.7 0.0
25/09:30pm 4.5 2.9 4.5 100 0.0 S 2 7 1 4 1030.6 1030.7 0.0
25/09:00pm 4.1 2.8 4.1 100 0.0 CALM 0 0 0 0 1030.7 1030.8 0.0
25/08:30pm 5.1 3.2 5.1 100 0.0 SSE 4 6 2 3 1030.5 1030.6 0.0
25/08:00pm 6.0 5.1 6.0 100 0.0 CALM 0 0 0 0 1030.5 1030.6 0.0
25/07:59pm 6.0 5.1 6.0 100 0.0 CALM 0 0 0 0 1030.5 1030.6 0.0
25/07:47pm 6.3 5.5 6.3 100 0.0 CALM 0 0 0 0 1030.4 1030.5 0.0
25/07:41pm 6.2 5.3 6.2 100 0.0 CALM 0 0 0 0 1030.4 1030.5 0.0
25/07:30pm 5.9 5.0 5.9 100 0.0 CALM 0 0 0 0 1030.4 1030.5 0.0
25/07:23pm 6.2 5.3 6.2 100 0.0 CALM 0 0 0 0 1030.2 1030.3 0.0
25/07:00pm 7.2 6.6 7.2 100 0.0 CALM 0 0 0 0 1030.0 1030.1 0.0
25/06:30pm 8.1 7.6 8.0 99 0.0 CALM 0 0 0 0 1029.7 1029.8 0.0
25/06:00pm 9.1 8.8 8.8 98 0.1 CALM 0 0 0 0 1029.5 1029.6 0.0
25/05:30pm 10.6 10.5 9.4 92 0.6 CALM 0 0 0 0 1029.2 1029.3 0.0
25/05:00pm 12.4 12.0 9.6 83 1.4 WNW 2 6 1 3 1029.0 1029.1 0.0
25/04:30pm 13.3 11.6 9.7 79 1.8 WNW 9 11 5 6 1028.8 1028.9 0.0
25/04:00pm 14.7 13.4 9.9 73 2.5 NW 7 9 4 5 1028.8 1028.9 0.0
25/03:30pm 14.7 13.7 10.3 75 2.3 WNW 6 9 3 5 1028.9 1029.0 0.0
25/03:00pm 14.7 12.4 9.1 69 2.8 WNW 11 15 6 8 1029.0 1029.1 0.0
25/02:30pm 14.3 11.6 9.1 71 2.7 WNW 13 19 7 10 1029.1 1029.2 0.0
25/02:00pm 15.4 12.8 9.5 68 3.0 WNW 13 20 7 11 1029.4 1029.5 0.0
25/01:30pm 14.4 12.9 9.2 71 2.7 WSW 7 13 4 7 1029.5 1029.6 0.0
25/01:00pm 13.4 12.0 9.6 78 1.9 W 7 11 4 6 1029.9 1030.0 0.0
25/12:30pm 11.1 9.9 9.4 89 0.9 WSW 6 9 3 5 1030.3 1030.4 0.0
25/12:00pm 10.2 9.6 9.0 92 0.6 SW 2 6 1 3 1030.6 1030.7 0.0
25/11:30am 9.9 9.6 8.8 93 0.5 CALM 0 0 0 0 1031.1 1031.2 0.0
25/11:00am 9.9 9.7 9.1 95 0.4 CALM 0 0 0 0 1031.5 1031.6 0.0
25/10:30am 8.3 7.1 8.2 99 0.0 WNW 4 7 2 4 1032.0 1032.0 0.0
25/10:00am 7.5 6.5 7.5 100 0.0 W 2 6 1 3 1032.0 1032.0 0.0
25/09:30am 7.2 5.2 7.2 100 0.0 SW 7 9 4 5 1031.9 1031.9 0.0
25/09:00am 5.2 4.1 5.2 100 0.0 CALM 0 0 0 0 1031.9 1031.9 0.0
25/08:30am 4.5 3.3 4.5 100 0.0 CALM 0 0 0 0 1032.1 1032.1 0.0
25/08:00am 4.0 1.5 4.0 100 0.0 SSW 6 6 3 3 1031.9 1031.9 0.0
25/07:30am 3.4 2.0 3.4 100 0.0 CALM 0 0 0 0 1031.6 1031.7 0.0
25/07:21am 3.2 1.7 3.2 100 0.0 CALM 0 0 0 0 1031.4 1031.5 0.0
25/07:00am 3.0 1.5 3.0 100 0.0 CALM 0 0 0 0 1031.5 1031.6 0.0
25/06:30am 3.1 0.5 3.1 100 0.0 ENE 6 7 3 4 1031.0 1031.1 0.0
25/06:00am 2.2 0.6 2.2 100 0.0 CALM 0 0 0 0 1030.9 1031.0 0.0
25/05:30am 2.6 1.0 2.6 100 0.0 CALM 0 6 0 3 1030.8 1030.9 0.0
25/05:24am 2.9 0.6 2.9 100 0.0 S 4 9 2 5 1030.9 1031.0 0.0
25/05:00am 1.9 0.2 1.9 100 0.0 CALM 0 0 0 0 1030.8 1030.9 0.0
25/04:30am 1.8 -0.3 1.8 100 0.0 SE 2 7 1 4 1030.6 1030.7 0.0
25/04:00am 1.9 -0.2 1.9 100 0.0 SSE 2 6 1 3 1030.4 1030.5 0.0
25/03:53am 2.2 -0.6 2.2 100 0.0 S 6 7 3 4 1030.5 1030.6 0.0
25/03:30am 2.9 0.1 2.9 100 0.0 SSW 7 9 4 5 1030.7 1030.8 0.0
25/03:16am 2.7 0.8 2.7 100 0.0 SW 2 7 1 4 1030.8 1030.9 0.0
25/03:00am 2.5 0.9 2.5 100 0.0 CALM 0 0 0 0 1030.9 1031.0 0.0
25/02:30am 2.8 1.3 2.8 100 0.0 CALM 0 0 0 0 1030.8 1030.9 0.0
25/02:00am 2.4 0.8 2.4 100 0.0 CALM 0 0 0 0 1031.0 1031.1 0.0
25/01:30am 1.7 -1.2 1.7 100 0.0 W 6 7 3 4 1031.0 1031.1 0.0
25/01:00am 2.1 0.4 2.1 100 0.0 CALM 0 0 0 0 1030.9 1031.0 0.0
25/12:30am 2.8 1.3 2.8 100 0.0 CALM 0 0 0 0 1031.1 1031.2 0.0
25/12:21am 2.8 1.3 2.8 100 0.0 CALM 0 0 0 0 1031.1 1031.2 0.0
25/12:11am 2.8 1.3 2.8 100 0.0 CALM 0 0 0 0 1031.2 1031.3 0.0
25/12:04am 2.7 1.1 2.7 100 0.0 CALM 0 0 0 0 1031.2 1031.3 0.0
25/12:00am 2.7 1.1 2.7 100 0.0 CALM 0 0 0 0 1031.2 1031.3 0.0
 
Date/Time
EST
Temp
°C
App
Temp
°C
Dew
Point
Rel
Hum
%
Delta-T
°C
Wind Press
QNH
hPa
Press
MSL
hPa
Rain
since 9 am
mm
Dir
 
Spd
km/h
Gust
km/h
Spd
kts
Gust
kts
24/11:33pm 2.8 1.3 2.8 100 0.0 CALM 0 0 0 0 1031.3 1031.4 0.0
24/11:30pm 2.9 1.4 2.9 100 0.0 CALM 0 0 0 0 1031.2 1031.3 0.0
24/11:13pm 2.6 1.0 2.6 100 0.0 CALM 0 0 0 0 1031.2 1031.3 0.0
24/11:01pm 3.5 2.1 3.5 100 0.0 CALM 0 0 0 0 1031.1 1031.2 0.0
24/11:00pm 3.4 2.0 3.4 100 0.0 CALM 0 0 0 0 1031.1 1031.2 0.0
24/10:36pm 3.3 1.9 3.3 100 0.0 CALM 0 0 0 0 1031.2 1031.3 0.0
24/10:30pm 3.3 1.9 3.3 100 0.0 CALM 0 0 0 0 1031.3 1031.4 0.0
24/10:00pm 4.5 3.3 4.5 100 0.0 CALM 0 0 0 0 1031.3 1031.4 0.0
24/09:30pm 4.2 2.9 4.2 100 0.0 CALM 0 0 0 0 1031.4 1031.5 0.0
24/09:00pm 4.1 1.5 4.1 100 0.0 SW 7 9 4 5 1031.2 1031.3 0.0
24/08:44pm 4.5 3.3 4.5 100 0.0 CALM 0 6 0 3 1031.0 1031.1 0.0
24/08:30pm 4.2 2.9 4.2 100 0.0 CALM 0 2 0 1 1031.0 1031.1 0.0
24/08:28pm 4.2 2.9 4.2 100 0.0 CALM 0 2 0 1 1031.0 1031.1 0.0
24/08:00pm 5.5 3.7 5.5 100 0.0 SSW 4 6 2 3 1031.1 1031.2 0.0
24/07:30pm 6.2 4.6 6.2 100 0.0 NNE 4 7 2 4 1030.9 1031.0 0.0
24/07:00pm 6.8 6.0 6.7 99 0.0 CALM 0 0 0 0 1030.9 1031.0 0.0
24/06:30pm 6.8 6.0 6.7 99 0.0 CALM 0 0 0 0 1030.8 1030.9 0.0
24/06:00pm 8.2 7.6 7.4 95 0.4 CALM 0 0 0 0 1030.6 1030.7 0.0
24/05:30pm 8.4 7.6 8.1 98 0.1 WNW 2 7 1 4 1030.4 1030.5 0.0
24/05:00pm 9.7 9.3 8.1 90 0.8 CALM 0 0 0 0 1030.2 1030.3 0.0
24/04:30pm 10.3 8.7 7.9 85 1.2 NNE 6 7 3 4 1030.2 1030.3 0.0
24/04:00pm 11.4 9.6 7.9 79 1.7 N 7 7 4 4 1030.0 1030.1 0.0
24/03:30pm 13.1 11.4 8.2 72 2.4 NNE 7 9 4 5 1029.8 1029.9 0.0
24/03:00pm 13.6 13.1 7.8 68 2.8 CALM 0 0 0 0 1029.8 1029.9 0.0
24/02:30pm 13.1 12.6 8.0 71 2.5 CALM 0 6 0 3 1029.8 1029.9 0.0
24/02:00pm 12.6 11.9 7.1 69 2.6 CALM 0 0 0 0 1030.0 1030.1 0.0
24/01:30pm 13.3 11.9 7.3 67 2.9 N 4 7 2 4 1030.2 1030.3 0.0
24/01:00pm 12.5 11.7 8.0 74 2.2 ENE 2 7 1 4 1030.3 1030.4 0.0
24/12:30pm 10.7 8.9 7.2 79 1.7 WSW 6 11 3 6 1030.9 1031.0 0.0
24/12:00pm 9.6 7.7 7.4 86 1.0 SW 7 13 4 7 1031.2 1031.3 0.0
24/11:30am 9.5 8.0 6.8 83 1.3 NE 4 7 2 4 1031.7 1031.8 0.0
24/11:00am 8.7 6.8 6.5 86 1.0 WNW 6 9 3 5 1032.3 1032.3 0.0
24/10:55am 8.4 6.5 6.9 90 0.7 SW 6 9 3 5 1032.4 1032.4 0.0
24/10:30am 7.1 5.4 6.0 93 0.5 ESE 4 9 2 5 1032.5 1032.5 0.0
24/10:00am 6.3 4.7 6.2 99 0.0 NNW 4 7 2 4 1032.6 1032.6 0.0
24/09:30am 6.1 3.5 6.1 100 0.0 NE 9 13 5 7 1032.3 1032.3 0.0
24/09:00am 5.5 3.2 5.5 100 0.0 N 7 9 4 5 1032.5 1032.5 0.0
24/08:30am 5.3 3.5 5.3 100 0.0 ENE 4 7 2 4 1032.3 1032.3 0.0
24/08:25am 5.2 3.0 5.2 100 0.0 E 6 9 3 5 1032.2 1032.2 0.0
24/08:00am 4.5 3.3 4.5 100 0.0 CALM 0 0 0 0 1032.0 1032.0 0.0
24/07:30am 4.2 2.9 4.2 100 0.0 CALM 0 0 0 0 1031.6 1031.7 0.0
24/07:17am 4.3 2.3 4.3 100 0.0 E 4 7 2 4 1031.5 1031.6 0.0
24/07:00am 5.0 3.1 5.0 100 0.0 E 4 7 2 4 1031.5 1031.6 0.0
24/06:30am 5.2 4.1 5.2 100 0.0 CALM 0 6 0 3 1031.6 1031.7 0.0
24/06:28am 5.2 4.1 5.2 100 0.0 CALM 0 0 0 0 1031.6 1031.7 0.0
24/06:00am 5.2 3.0 5.2 100 0.0 NE 6 7 3 4 1031.6 1031.7 0.0
24/05:46am 5.2 2.8 5.2 100 0.0 NE 7 7 4 4 1031.4 1031.5 0.0
24/05:30am 5.3 3.1 5.3 100 0.0 NE 6 7 3 4 1031.2 1031.3 0.0
24/05:00am 6.0 5.1 5.9 99 0.0 CALM 0 7 0 4 1031.0 1031.1 0.0
24/04:30am 6.3 4.1 6.3 100 0.0 W 7 9 4 5 1031.0 1031.1 0.0
24/04:00am 6.4 4.2 6.4 100 0.0 WNW 7 9 4 5 1030.9 1031.0 0.0
24/03:30am 6.5 4.4 6.5 100 0.0 WNW 7 11 4 6 1031.1 1031.2 0.0
24/03:00am 6.4 4.2 6.4 100 0.0 W 7 11 4 6 1031.2 1031.3 0.0
24/02:30am 6.4 3.5 6.4 100 0.0 WNW 11 13 6 7 1031.2 1031.3 0.0
24/02:00am 6.3 3.0 6.3 100 0.0 WNW 13 17 7 9 1031.3 1031.4 0.0
24/01:30am 6.0 2.6 6.0 100 0.0 NW 13 15 7 8 1031.1 1031.2 0.0
24/01:00am 4.0 1.4 4.0 100 0.0 W 7 11 4 6 1031.1 1031.2 0.0
24/12:57am 4.0 1.4 4.0 100 0.0 W 7 9 4 5 1031.0 1031.1 0.0
24/12:30am 4.5 0.8 4.5 100 0.0 WNW 13 17 7 9 1031.3 1031.4 0.0

Other Formats:

Comma delimited format used in spreadsheet applications
http://www.bom.gov.au/fwo/IDV60801/IDV60801.94891.axf

JavaScript Object Notation format (JSON) in row-major order
http://www.bom.gov.au/fwo/IDV60801/IDV60801.94891.json